Time;durP1;ratioP1;P1;durP2;ratioP2;P2;SDS_P1;SDS_P2;PMS_P1;PMS_P2;Temp;Humidity;BMP_temperature;BMP_pressure;BME280_temperature;BME280_humidity;BME280_pressure;Samples;Min_cycle;Max_cycle;Signal;HPM_P1;HPM_P2
2023/12/14 00:01:48;;;;;;;6.77;3.07;;;9.70;91.10;;;;;;4829838;29;20211;-86
2023/12/14 00:04:17;;;;;;;6.23;3.17;;;9.70;91.00;;;;;;4837360;29;20234;-87
2023/12/14 00:06:47;;;;;;;3.50;3.13;;;9.70;91.00;;;;;;4831942;29;20203;-87
2023/12/14 00:09:16;;;;;;;5.80;5.23;;;9.60;91.00;;;;;;4831814;29;20211;-86
2023/12/14 00:11:44;;;;;;;2.67;2.47;;;9.70;91.10;;;;;;4837898;29;20215;-86
2023/12/14 00:14:13;;;;;;;6.97;3.30;;;9.60;91.00;;;;;;4832925;29;20231;-87
2023/12/14 00:16:41;;;;;;;2.63;2.43;;;9.70;91.10;;;;;;4836365;29;20215;-88
2023/12/14 00:19:10;;;;;;;1.40;1.30;;;9.70;91.10;;;;;;4836059;29;20230;-87
2023/12/14 00:21:39;;;;;;;4.10;3.07;;;9.60;91.10;;;;;;4834495;29;20219;-87
2023/12/14 00:24:09;;;;;;;9.37;3.07;;;9.60;91.00;;;;;;4834173;29;20214;-87
2023/12/14 00:26:37;;;;;;;2.50;2.13;;;9.60;91.00;;;;;;4835893;29;20238;-89
2023/12/14 00:29:06;;;;;;;3.57;2.83;;;9.60;91.00;;;;;;4834347;29;20210;-87
2023/12/14 00:31:34;;;;;;;4.40;4.00;;;9.60;91.00;;;;;;4833759;29;20210;-88
2023/12/14 00:34:03;;;;;;;6.37;4.43;;;9.60;91.00;;;;;;4836823;29;20234;-89
2023/12/14 00:36:32;;;;;;;3.83;2.80;;;9.60;90.90;;;;;;4832627;29;20500;-88
2023/12/14 00:39:01;;;;;;;4.03;3.10;;;9.60;90.90;;;;;;4829950;29;20571;-88
2023/12/14 00:41:31;;;;;;;4.00;2.50;;;9.50;90.90;;;;;;4837761;29;20728;-88
2023/12/14 00:43:59;;;;;;;3.90;3.07;;;9.50;90.90;;;;;;4833668;29;20646;-88
2023/12/14 00:46:28;;;;;;;2.87;2.67;;;9.50;90.90;;;;;;4828884;29;20207;-88
2023/12/14 00:48:57;;;;;;;4.90;4.40;;;9.50;90.90;;;;;;4829091;29;20206;-87
2023/12/14 00:51:26;;;;;;;3.80;3.17;;;9.50;90.90;;;;;;4831781;29;20211;-88
2023/12/14 00:53:54;;;;;;;7.93;5.13;;;9.50;90.90;;;;;;4836847;29;20229;-87
2023/12/14 00:56:23;;;;;;;12.77;3.77;;;9.50;90.90;;;;;;4834003;29;20218;-87
2023/12/14 00:58:53;;;;;;;6.00;2.57;;;9.40;90.90;;;;;;4832799;29;20202;-89
2023/12/14 01:01:22;;;;;;;3.57;3.27;;;9.40;90.90;;;;;;4838592;29;20202;-88
2023/12/14 01:03:51;;;;;;;1.87;1.73;;;9.40;90.90;;;;;;4841807;29;20199;-87
2023/12/14 01:06:19;;;;;;;4.07;3.60;;;9.40;90.80;;;;;;4835362;29;20207;-87
2023/12/14 01:08:48;;;;;;;5.10;3.50;;;9.40;90.70;;;;;;4838855;29;20238;-87
2023/12/14 01:11:16;;;;;;;6.03;4.43;;;9.30;90.70;;;;;;4837775;29;20206;-87
2023/12/14 01:13:45;;;;;;;4.07;3.67;;;9.30;90.70;;;;;;4838749;29;20216;-87
2023/12/14 01:16:15;;;;;;;3.90;3.50;;;9.30;90.70;;;;;;4837156;29;20298;-88
2023/12/14 01:18:44;;;;;;;2.77;2.53;;;9.30;90.70;;;;;;4837474;29;20235;-87
2023/12/14 01:21:13;;;;;;;3.07;2.37;;;9.30;90.70;;;;;;4840096;29;20205;-87
2023/12/14 01:23:41;;;;;;;2.07;1.90;;;9.20;90.70;;;;;;4836761;29;20207;-87
2023/12/14 01:26:10;;;;;;;9.17;2.27;;;9.20;90.70;;;;;;4836807;29;20321;-88
2023/12/14 01:28:39;;;;;;;4.20;2.27;;;9.20;90.70;;;;;;4831178;29;20725;-87
2023/12/14 01:31:07;;;;;;;6.33;4.33;;;9.20;90.70;;;;;;4839681;29;20622;-88
2023/12/14 01:33:38;;;;;;;4.97;3.03;;;9.20;90.80;;;;;;4835516;29;20213;-87
2023/12/14 01:36:07;;;;;;;5.37;4.87;;;9.20;90.80;;;;;;4838711;29;20226;-88
2023/12/14 01:38:35;;;;;;;4.23;2.77;;;9.20;90.70;;;;;;4841973;29;20215;-87
2023/12/14 01:41:05;;;;;;;2.77;2.57;;;9.20;90.70;;;;;;4836996;29;20210;-87
2023/12/14 01:43:33;;;;;;;1.40;1.30;;;9.10;90.70;;;;;;4838555;29;20206;-87
2023/12/14 01:46:02;;;;;;;6.07;4.63;;;9.10;90.70;;;;;;4834011;29;20210;-86
2023/12/14 01:48:31;;;;;;;2.57;2.20;;;9.10;90.70;;;;;;4831696;29;20206;-89
2023/12/14 01:51:01;;;;;;;2.53;2.33;;;9.10;90.70;;;;;;4831290;29;20210;-86
2023/12/14 01:53:29;;;;;;;2.73;2.53;;;9.10;90.70;;;;;;4834100;29;20225;-86
2023/12/14 01:55:58;;;;;;;1.83;1.73;;;9.10;90.70;;;;;;4834726;29;20226;-84
2023/12/14 01:58:27;;;;;;;10.27;3.37;;;9.10;90.70;;;;;;4836271;29;20217;-85
2023/12/14 02:01:04;;;;;;;6.37;3.43;;;9.10;90.70;;;;;;4831995;29;20616;-86
2023/12/14 02:03:33;;;;;;;5.97;3.53;;;9.10;90.70;;;;;;4834988;29;20266;-86
2023/12/14 02:06:03;;;;;;;5.17;2.33;;;9.10;90.70;;;;;;4835566;29;20683;-85
2023/12/14 02:08:31;;;;;;;2.93;2.73;;;9.10;90.70;;;;;;4832798;29;20211;-85
2023/12/14 02:11:00;;;;;;;8.03;4.00;;;9.10;90.70;;;;;;4837909;29;20209;-85
2023/12/14 02:13:29;;;;;;;4.93;1.73;;;9.10;90.70;;;;;;4835270;29;20207;-85
2023/12/14 02:15:57;;;;;;;7.93;5.80;;;9.10;90.70;;;;;;4836146;29;20257;-85
2023/12/14 02:18:26;;;;;;;4.00;3.23;;;9.10;90.70;;;;;;4835779;29;20611;-85
2023/12/14 02:20:54;;;;;;;3.33;2.73;;;9.10;90.70;;;;;;4838513;29;20204;-85
2023/12/14 02:23:25;;;;;;;5.43;3.63;;;9.10;90.70;;;;;;4831814;29;20210;-85
2023/12/14 02:25:53;;;;;;;11.57;5.93;;;9.00;90.60;;;;;;4835652;29;20333;-85
2023/12/14 02:28:22;;;;;;;10.03;4.10;;;9.00;90.60;;;;;;4834299;29;20206;-86
2023/12/14 02:30:50;;;;;;;4.70;3.00;;;9.00;90.60;;;;;;4834350;29;20211;-84
2023/12/14 02:33:19;;;;;;;0.93;0.93;;;9.00;90.60;;;;;;4829514;29;20207;-85
2023/12/14 02:35:48;;;;;;;2.93;2.73;;;9.00;90.60;;;;;;4831208;29;20237;-85
2023/12/14 02:38:16;;;;;;;7.70;3.40;;;9.00;90.60;;;;;;4833227;29;20221;-85
2023/12/14 02:40:47;;;;;;;1.47;1.37;;;9.00;90.60;;;;;;4832484;29;20293;-85
2023/12/14 02:43:16;;;;;;;2.83;2.60;;;9.00;90.60;;;;;;4826873;29;20207;-86
2023/12/14 02:45:44;;;;;;;7.83;4.53;;;9.10;90.80;;;;;;4827244;29;20215;-85
2023/12/14 02:48:13;;;;;;;3.73;2.80;;;9.00;90.70;;;;;;4831631;29;20225;-86
2023/12/14 02:50:42;;;;;;;3.23;2.77;;;9.10;90.70;;;;;;4825936;29;20721;-86
2023/12/14 02:53:10;;;;;;;1.60;1.50;;;9.10;90.70;;;;;;4830653;29;20297;-87
2023/12/14 02:55:39;;;;;;;3.20;2.58;;;9.10;90.60;;;;;;4831436;29;20472;-85
2023/12/14 02:58:09;;;;;;;3.13;2.73;;;9.00;90.70;;;;;;4834637;29;20577;-86
2023/12/14 03:00:39;;;;;;;3.00;2.80;;;9.00;90.70;;;;;;4834811;29;20198;-86
2023/12/14 03:03:07;;;;;;;3.00;2.73;;;9.00;90.80;;;;;;4838955;29;20210;-85
2023/12/14 03:05:36;;;;;;;4.43;2.70;;;9.00;90.70;;;;;;4836640;29;20251;-86
2023/12/14 03:08:04;;;;;;;3.27;3.00;;;9.00;90.70;;;;;;4838733;29;20306;-86
2023/12/14 03:10:33;;;;;;;4.40;3.00;;;9.00;90.70;;;;;;4837066;29;20221;-87
2023/12/14 03:13:02;;;;;;;3.13;2.47;;;9.00;90.70;;;;;;4842052;29;20207;-87
2023/12/14 03:15:32;;;;;;;3.07;2.87;;;9.00;90.60;;;;;;4839105;29;20232;-87
2023/12/14 03:18:00;;;;;;;2.17;1.40;;;9.00;90.60;;;;;;4840167;29;20561;-87
2023/12/14 03:20:29;;;;;;;4.03;2.50;;;9.00;90.60;;;;;;4838024;29;20209;-86
2023/12/14 03:22:57;;;;;;;4.50;3.23;;;9.00;90.60;;;;;;4838772;29;20700;-86
2023/12/14 03:25:26;;;;;;;2.23;2.00;;;9.10;90.70;;;;;;4832655;29;20222;-85
2023/12/14 03:27:55;;;;;;;4.23;2.97;;;9.10;90.80;;;;;;4838332;29;20249;-86
2023/12/14 03:30:24;;;;;;;3.70;3.37;;;9.10;90.80;;;;;;4832583;29;20539;-87
2023/12/14 03:32:54;;;;;;;3.80;3.50;;;9.10;90.80;;;;;;4840409;29;20299;-87
2023/12/14 03:35:22;;;;;;;5.83;2.43;;;9.10;90.90;;;;;;4833884;29;20238;-87
2023/12/14 03:37:51;;;;;;;2.13;1.93;;;9.10;90.80;;;;;;4830466;29;20957;-86
2023/12/14 03:40:19;;;;;;;2.97;2.53;;;9.10;90.70;;;;;;4834066;29;20635;-87
2023/12/14 03:42:48;;;;;;;3.33;3.03;;;9.10;90.60;;;;;;4841738;29;20294;-88
2023/12/14 03:45:17;;;;;;;6.37;3.90;;;9.10;90.70;;;;;;4834299;29;20362;-88
2023/12/14 03:47:45;;;;;;;3.67;2.97;;;9.10;90.70;;;;;;4831125;29;20215;-88
2023/12/14 03:50:15;;;;;;;3.57;2.77;;;9.10;90.70;;;;;;4835297;29;20215;-87
2023/12/14 03:52:44;;;;;;;4.23;3.03;;;9.10;90.80;;;;;;4836101;29;20287;-88
2023/12/14 03:55:14;;;;;;;5.43;3.27;;;9.10;90.80;;;;;;4836253;29;20237;-87
2023/12/14 03:57:43;;;;;;;5.00;3.87;;;9.10;90.80;;;;;;4833282;29;20194;-85
2023/12/14 04:00:13;;;;;;;8.93;4.77;;;9.10;90.90;;;;;;4838821;29;20206;-85
2023/12/14 04:02:42;;;;;;;5.33;2.90;;;9.10;90.90;;;;;;4830952;29;20221;-86
2023/12/14 04:05:11;;;;;;;4.23;3.93;;;9.10;90.90;;;;;;4837299;29;20210;-86
2023/12/14 04:07:41;;;;;;;5.57;2.67;;;9.10;90.80;;;;;;4837025;29;20276;-85
2023/12/14 04:10:11;;;;;;;4.70;2.77;;;9.10;90.80;;;;;;4835871;29;20590;-86
2023/12/14 04:12:40;;;;;;;2.27;2.07;;;9.10;90.80;;;;;;4839020;29;20219;-86
2023/12/14 04:15:11;;;;;;;10.37;4.03;;;9.00;90.80;;;;;;4838337;29;20690;-85
2023/12/14 04:17:39;;;;;;;2.40;2.20;;;9.10;90.90;;;;;;4837875;29;20237;-85
2023/12/14 04:20:10;;;;;;;4.27;3.87;;;9.10;90.90;;;;;;4835925;29;20209;-86
2023/12/14 04:22:38;;;;;;;5.30;2.50;;;9.10;90.90;;;;;;4832083;29;20206;-87
2023/12/14 04:25:09;;;;;;;3.90;3.60;;;9.10;90.90;;;;;;4840362;29;20287;-86
2023/12/14 04:27:37;;;;;;;3.00;2.77;;;9.20;91.00;;;;;;4836177;29;20250;-87
2023/12/14 04:30:10;;;;;;;3.23;2.97;;;9.20;91.00;;;;;;4839174;29;20218;-86
2023/12/14 04:32:39;;;;;;;5.20;3.43;;;9.20;91.00;;;;;;4840027;29;20212;-84
2023/12/14 04:35:09;;;;;;;4.33;3.47;;;9.20;91.00;;;;;;4836208;29;20213;-84
2023/12/14 04:37:38;;;;;;;4.67;4.23;;;9.20;91.00;;;;;;4830713;29;20231;-85
2023/12/14 04:40:09;;;;;;;3.83;3.47;;;9.20;91.00;;;;;;4832306;29;20206;-85
2023/12/14 04:42:38;;;;;;;6.33;4.33;;;9.20;91.00;;;;;;4833239;29;20211;-87
2023/12/14 04:45:08;;;;;;;2.93;2.63;;;9.20;91.00;;;;;;4834698;29;20199;-87
2023/12/14 04:47:37;;;;;;;5.23;3.17;;;9.30;91.10;;;;;;4834671;29;20202;-86
2023/12/14 04:50:06;;;;;;;4.03;3.70;;;9.30;91.00;;;;;;4827247;29;20203;-87
2023/12/14 04:52:35;;;;;;;9.90;5.13;;;9.30;91.00;;;;;;4833753;29;20255;-86
2023/12/14 04:55:05;;;;;;;4.23;3.80;;;9.30;90.90;;;;;;4833717;29;20207;-87
2023/12/14 04:57:36;;;;;;;5.27;4.63;;;9.40;90.90;;;;;;4832212;29;20222;-87
2023/12/14 05:00:05;;;;;;;2.43;2.23;;;9.30;90.90;;;;;;4833647;29;20214;-87
2023/12/14 05:02:34;;;;;;;4.13;3.60;;;9.40;90.80;;;;;;4837219;29;20207;-88
2023/12/14 05:05:03;;;;;;;8.53;4.70;;;9.40;90.80;;;;;;4838427;29;20221;-86
2023/12/14 05:07:32;;;;;;;4.00;2.73;;;9.30;90.70;;;;;;4837418;29;20225;-86
2023/12/14 05:10:14;;;;;;;4.50;4.00;;;9.40;90.70;;;;;;4834402;29;20203;-88
2023/12/14 05:12:44;;;;;;;3.83;3.30;;;9.30;90.70;;;;;;4838375;29;20301;-86
2023/12/14 05:15:13;;;;;;;5.83;3.30;;;9.30;90.70;;;;;;4839160;29;20218;-86
2023/12/14 05:17:42;;;;;;;2.87;2.67;;;9.30;90.70;;;;;;4838393;29;20571;-88
2023/12/14 05:20:11;;;;;;;5.73;5.13;;;9.30;90.70;;;;;;4839164;29;20202;-87
2023/12/14 05:22:40;;;;;;;3.73;3.40;;;9.30;90.70;;;;;;4839275;29;20358;-86
2023/12/14 05:25:10;;;;;;;6.97;4.13;;;9.30;90.70;;;;;;4836845;29;20222;-87
2023/12/14 05:27:38;;;;;;;2.67;2.47;;;9.30;90.60;;;;;;4830091;29;20230;-87
2023/12/14 05:30:09;;;;;;;8.83;4.77;;;9.30;90.60;;;;;;4835378;29;20216;-86
2023/12/14 05:32:38;;;;;;;2.93;2.60;;;9.20;90.60;;;;;;4831626;29;20215;-86
2023/12/14 05:35:09;;;;;;;7.10;4.03;;;9.20;90.60;;;;;;4831408;29;20203;-85
2023/12/14 05:37:40;;;;;;;12.47;5.77;;;9.30;90.70;;;;;;4837317;29;20451;-85
2023/12/14 05:40:11;;;;;;;6.03;4.27;;;9.20;90.60;;;;;;4842537;29;20291;-90
2023/12/14 05:42:40;;;;;;;3.33;3.07;;;9.20;90.70;;;;;;4845625;29;20202;-89
2023/12/14 05:45:11;;;;;;;3.80;3.50;;;9.20;90.70;;;;;;4835913;29;20566;-88
2023/12/14 05:47:41;;;;;;;6.97;2.90;;;9.20;90.70;;;;;;4837014;29;20206;-89
2023/12/14 05:50:10;;;;;;;7.37;5.57;;;9.20;90.70;;;;;;4839908;29;20238;-89
2023/12/14 05:52:40;;;;;;;3.93;3.40;;;9.20;90.70;;;;;;4839746;29;20208;-88
2023/12/14 05:55:10;;;;;;;5.27;4.83;;;9.20;90.60;;;;;;4836176;29;20210;-87
2023/12/14 05:57:39;;;;;;;5.70;3.13;;;9.10;90.60;;;;;;4846317;29;20226;-90
2023/12/14 06:00:10;;;;;;;6.57;4.33;;;9.20;90.70;;;;;;4838519;29;20222;-87
2023/12/14 06:02:39;;;;;;;6.53;4.40;;;9.10;90.70;;;;;;4836040;29;20202;-87
2023/12/14 06:07:51;;;;;;;15.00;3.73;;;9.10;90.70;;;;;;4838770;29;20699;-90
2023/12/14 06:10:34;;;;;;;2.97;2.73;;;9.20;90.80;;;;;;4848516;29;20637;-89
2023/12/14 06:13:03;;;;;;;2.90;2.67;;;9.20;90.80;;;;;;4843461;29;20203;-90
2023/12/14 06:15:33;;;;;;;4.83;3.80;;;9.10;90.80;;;;;;4846830;29;20228;-87
2023/12/14 06:21:17;;;;;;;4.07;3.60;;;9.20;90.90;;;;;;4832995;29;20212;-85
2023/12/14 06:23:46;;;;;;;7.13;6.50;;;9.20;91.00;;;;;;4835619;29;20214;-85
2023/12/14 06:26:19;;;;;;;6.07;4.63;;;9.20;91.10;;;;;;4838519;29;20240;-87
2023/12/14 06:28:48;;;;;;;10.83;6.70;;;9.10;91.20;;;;;;4843279;29;20267;-85
2023/12/14 06:34:03;;;;;;;9.70;7.23;;;9.20;91.30;;;;;;4838195;29;20207;-86
2023/12/14 06:36:32;;;;;;;11.37;7.10;;;9.10;91.30;;;;;;4841972;29;20206;-87
2023/12/14 06:41:58;;;;;;;6.20;5.60;;;9.20;91.30;;;;;;4830601;29;20203;-86
2023/12/14 06:44:41;;;;;;;6.47;3.83;;;9.20;91.30;;;;;;4841142;29;20302;-87
2023/12/14 06:47:25;;;;;;;3.07;2.80;;;9.30;91.30;;;;;;4842338;29;20680;-86
2023/12/14 06:49:56;;;;;;;8.70;3.63;;;9.30;91.30;;;;;;4835359;29;20308;-84
2023/12/14 06:52:25;;;;;;;4.27;3.80;;;9.30;91.30;;;;;;4841479;29;20218;-84
2023/12/14 06:54:54;;;;;;;6.53;4.57;;;9.40;91.50;;;;;;4836294;29;20218;-84
2023/12/14 06:57:22;;;;;;;3.30;3.00;;;9.40;91.50;;;;;;4843829;29;20229;-84
2023/12/14 06:59:54;;;;;;;6.13;4.33;;;9.40;91.50;;;;;;4840337;29;20210;-85
2023/12/14 07:02:23;;;;;;;8.33;4.40;;;9.50;91.70;;;;;;4841378;29;20324;-85
2023/12/14 07:04:53;;;;;;;3.23;2.40;;;9.50;91.70;;;;;;4841058;29;20553;-84
2023/12/14 07:07:21;;;;;;;7.97;4.20;;;9.50;91.70;;;;;;4840976;29;20538;-85
2023/12/14 07:09:50;;;;;;;5.07;3.53;;;9.50;91.80;;;;;;4841517;29;20816;-85
2023/12/14 07:12:19;;;;;;;7.30;5.10;;;9.60;91.80;;;;;;4841248;29;20221;-85
2023/12/14 07:14:48;;;;;;;4.57;4.10;;;9.60;91.90;;;;;;4839389;29;20203;-85
2023/12/14 07:17:16;;;;;;;10.67;4.20;;;9.60;91.90;;;;;;4838793;29;20269;-85
2023/12/14 07:19:45;;;;;;;8.73;5.77;;;9.70;91.90;;;;;;4838466;29;20203;-84
2023/12/14 07:22:14;;;;;;;4.13;3.73;;;9.70;92.00;;;;;;4839470;29;20210;-83
2023/12/14 07:24:43;;;;;;;4.57;4.03;;;9.70;92.00;;;;;;4839967;29;20214;-83
2023/12/14 07:27:20;;;;;;;7.43;6.23;;;9.80;92.00;;;;;;4840731;29;20269;-83
2023/12/14 07:29:48;;;;;;;12.60;6.20;;;9.80;92.00;;;;;;4832961;29;20199;-84
2023/12/14 07:32:17;;;;;;;9.80;6.27;;;9.80;92.00;;;;;;4836484;29;20206;-83
2023/12/14 07:34:46;;;;;;;8.07;7.27;;;9.80;91.90;;;;;;4836622;29;20217;-82
2023/12/14 07:37:16;;;;;;;8.97;6.83;;;9.80;91.90;;;;;;4840717;29;20255;-83
2023/12/14 07:39:44;;;;;;;8.83;5.40;;;9.80;91.90;;;;;;4835259;29;20467;-84
2023/12/14 07:42:15;;;;;;;10.40;6.33;;;9.80;91.90;;;;;;4847331;29;20206;-86
2023/12/14 07:44:43;;;;;;;8.17;4.47;;;9.80;91.80;;;;;;4842958;29;20206;-86
2023/12/14 07:47:12;;;;;;;8.57;6.47;;;9.80;91.80;;;;;;4842479;29;20219;-85
2023/12/14 07:49:40;;;;;;;5.00;4.57;;;9.80;91.90;;;;;;4835732;29;20214;-87
2023/12/14 07:52:29;;;;;;;10.63;6.43;;;9.90;91.90;;;;;;4839700;29;20206;-90
2023/12/14 07:55:14;;;;;;;5.87;5.37;;;9.90;92.00;;;;;;4836470;29;20665;-89
2023/12/14 07:57:43;;;;;;;12.90;7.57;;;9.90;92.10;;;;;;4838178;29;20234;-89
2023/12/14 08:00:13;;;;;;;11.07;5.47;;;9.90;92.10;;;;;;4836300;29;20658;-90
2023/12/14 08:02:42;;;;;;;11.77;5.07;;;10.00;92.20;;;;;;4845974;29;20616;-86
2023/12/14 08:05:10;;;;;;;5.50;4.37;;;10.10;92.30;;;;;;4843250;29;20263;-86
2023/12/14 08:07:39;;;;;;;3.77;3.40;;;10.10;92.40;;;;;;4841074;29;20218;-83
2023/12/14 08:10:08;;;;;;;6.10;4.50;;;10.20;92.40;;;;;;4840950;29;20553;-86
2023/12/14 08:12:38;;;;;;;4.20;3.80;;;10.30;92.50;;;;;;4838605;29;20325;-86
2023/12/14 08:15:08;;;;;;;10.37;6.07;;;10.40;92.60;;;;;;4839145;29;20619;-87
2023/12/14 08:17:37;;;;;;;5.93;4.67;;;10.50;92.70;;;;;;4826749;29;20373;-86
2023/12/14 08:20:08;;;;;;;9.27;5.90;;;10.50;92.70;;;;;;4831622;29;20206;-85
2023/12/14 08:22:37;;;;;;;8.03;5.93;;;10.60;92.70;;;;;;4833938;29;20298;-85
2023/12/14 08:25:07;;;;;;;9.30;6.80;;;10.60;92.80;;;;;;4844460;29;20279;-87
2023/12/14 08:27:35;;;;;;;4.17;3.77;;;10.70;92.80;;;;;;4831274;29;20238;-87
2023/12/14 08:30:07;;;;;;;6.60;4.53;;;10.70;92.80;;;;;;4837647;29;20305;-84
2023/12/14 08:32:37;;;;;;;6.27;4.70;;;10.80;92.70;;;;;;4829266;29;20218;-87
2023/12/14 08:35:06;;;;;;;6.23;4.93;;;10.80;92.50;;;;;;4837839;29;20261;-84
2023/12/14 08:37:37;;;;;;;11.50;5.30;;;10.80;92.40;;;;;;4841170;29;20206;-86
2023/12/14 08:40:07;;;;;;;3.03;2.67;;;10.80;92.40;;;;;;4834774;29;20270;-85
2023/12/14 08:42:36;;;;;;;10.67;5.73;;;10.90;92.50;;;;;;4835678;29;20271;-87
2023/12/14 08:45:11;;;;;;;5.53;4.27;;;10.90;92.60;;;;;;4837154;29;20212;-84
2023/12/14 08:47:40;;;;;;;7.63;5.57;;;10.90;92.60;;;;;;4835186;29;20213;-85
2023/12/14 08:50:09;;;;;;;4.90;4.37;;;11.00;92.70;;;;;;4837455;29;20206;-85
2023/12/14 08:52:38;;;;;;;5.47;3.92;;;11.10;92.70;;;;;;4833398;29;20465;-84
2023/12/14 08:55:08;;;;;;;2.73;2.03;;;11.10;92.90;;;;;;4831690;29;20719;-84
2023/12/14 08:57:36;;;;;;;2.77;2.57;;;11.20;92.90;;;;;;4827131;29;20217;-85
2023/12/14 09:00:08;;;;;;;3.43;3.13;;;11.30;92.80;;;;;;4832863;29;20353;-83
2023/12/14 09:02:36;;;;;;;8.07;5.43;;;11.30;92.50;;;;;;4829694;29;20226;-86
2023/12/14 09:05:05;;;;;;;6.20;3.73;;;11.40;92.60;;;;;;4836059;29;20328;-83
2023/12/14 09:07:34;;;;;;;4.77;2.43;;;11.40;92.40;;;;;;4842549;29;20242;-85
2023/12/14 09:10:03;;;;;;;5.23;3.27;;;11.50;92.50;;;;;;4839422;29;20211;-84
2023/12/14 09:12:32;;;;;;;9.77;4.17;;;11.50;92.30;;;;;;4831873;29;20203;-83
2023/12/14 09:15:01;;;;;;;2.27;2.07;;;11.50;92.10;;;;;;4835044;29;20254;-83
2023/12/14 09:17:33;;;;;;;6.33;3.33;;;11.60;92.20;;;;;;4832646;29;20401;-83
2023/12/14 09:20:06;;;;;;;3.97;3.60;;;11.60;92.00;;;;;;4838881;29;20222;-84
2023/12/14 09:22:35;;;;;;;4.57;4.13;;;11.60;92.10;;;;;;4835282;29;20212;-84
2023/12/14 09:25:04;;;;;;;5.03;3.57;;;11.70;92.10;;;;;;4830289;29;20704;-85
2023/12/14 09:27:33;;;;;;;2.93;2.73;;;11.70;92.10;;;;;;4832892;29;20235;-87
2023/12/14 09:33:01;;;;;;;11.00;2.63;;;11.80;91.70;;;;;;4840079;29;20691;-91
2023/12/14 09:35:44;;;;;;;3.67;2.83;;;11.80;91.50;;;;;;4828007;29;20295;-93
2023/12/14 09:38:17;;;;;;;3.00;1.90;;;11.80;91.60;;;;;;4850648;29;20199;-92
2023/12/14 09:40:46;;;;;;;7.93;4.57;;;11.80;91.70;;;;;;4838763;29;20760;-90
2023/12/14 09:43:15;;;;;;;5.43;4.50;;;11.80;91.70;;;;;;4842736;29;20243;-87
2023/12/14 09:45:45;;;;;;;7.00;3.70;;;11.80;91.60;;;;;;4837190;29;20218;-89
2023/12/14 09:48:20;;;;;;;4.67;4.27;;;11.80;91.60;;;;;;4848945;29;20236;-92
2023/12/14 09:50:54;;;;;;;3.33;2.13;;;11.80;91.70;;;;;;4852272;29;20278;-91
2023/12/14 09:53:23;;;;;;;3.70;3.40;;;11.80;91.60;;;;;;4847487;29;20214;-90
2023/12/14 09:55:52;;;;;;;3.37;1.70;;;11.90;91.60;;;;;;4837150;29;20218;-90
2023/12/14 09:58:20;;;;;;;2.97;2.70;;;11.90;91.50;;;;;;4844522;29;20210;-88
2023/12/14 10:00:49;;;;;;;2.77;2.37;;;11.90;91.20;;;;;;4836946;29;20217;-86
2023/12/14 10:03:28;;;;;;;2.07;1.83;;;11.90;91.20;;;;;;4836631;29;20675;-89
2023/12/14 10:05:58;;;;;;;3.90;2.57;;;12.00;91.00;;;;;;4840189;29;20286;-90
2023/12/14 10:08:28;;;;;;;2.63;2.10;;;12.00;90.90;;;;;;4833002;29;20283;-85
2023/12/14 10:10:57;;;;;;;3.23;2.30;;;12.00;90.40;;;;;;4836373;29;20210;-89
2023/12/14 10:13:40;;;;;;;1.77;1.63;;;12.00;90.60;;;;;;4835921;29;20211;-87
2023/12/14 10:16:11;;;;;;;2.80;2.60;;;12.10;90.40;;;;;;4834335;29;20243;-90
2023/12/14 10:18:42;;;;;;;9.73;2.47;;;12.00;90.20;;;;;;4845266;29;20214;-91
2023/12/14 10:21:10;;;;;;;2.77;2.33;;;12.10;90.70;;;;;;4848396;29;20199;-86
2023/12/14 10:23:41;;;;;;;2.20;1.60;;;12.20;90.40;;;;;;4843115;29;20206;-91
2023/12/14 10:28:53;;;;;;;1.97;1.80;;;12.20;90.30;;;;;;4835169;29;20214;-88
2023/12/14 10:34:22;;;;;;;5.20;2.17;;;12.20;90.10;;;;;;4833482;29;20203;-88
2023/12/14 10:36:51;;;;;;;3.00;2.70;;;12.30;90.00;;;;;;4836926;29;20222;-86
2023/12/14 10:39:35;;;;;;;6.45;4.30;;;12.20;89.90;;;;;;4835055;29;20486;-87
2023/12/14 10:45:04;;;;;;;5.30;3.60;;;12.30;89.90;;;;;;4841055;29;20717;-89
2023/12/14 10:50:36;;;;;;;10.00;3.50;;;12.30;89.80;;;;;;4830503;29;20249;-87
2023/12/14 10:53:06;;;;;;;4.33;3.27;;;12.20;89.90;;;;;;4831427;29;20682;-84
2023/12/14 10:55:39;;;;;;;5.43;2.80;;;12.20;89.80;;;;;;4831971;29;20210;-89
2023/12/14 10:58:09;;;;;;;6.47;3.60;;;12.20;90.00;;;;;;4831475;29;20234;-90
2023/12/14 11:00:38;;;;;;;7.90;3.57;;;12.20;90.10;;;;;;4832019;29;20230;-88
2023/12/14 11:03:07;;;;;;;3.70;2.50;;;12.10;90.10;;;;;;4835205;29;20573;-88
2023/12/14 11:08:48;;;;;;;4.33;1.90;;;12.00;90.20;;;;;;4836465;29;20618;-86
2023/12/14 11:11:20;;;;;;;7.33;3.77;;;11.90;90.20;;;;;;4835315;29;20203;-87
2023/12/14 11:13:53;;;;;;;4.23;2.40;;;11.90;90.40;;;;;;4837845;29;20202;-86
2023/12/14 11:16:22;;;;;;;4.53;3.53;;;11.80;90.50;;;;;;4835916;29;20458;-89
2023/12/14 11:19:33;;;;;;;3.77;3.03;;;11.80;90.80;;;;;;4841086;29;20658;-91
2023/12/14 11:22:23;;;;;;;5.17;3.53;;;11.70;91.30;;;;;;4826296;29;20212;-90
2023/12/14 11:24:56;;;;;;;3.93;2.90;;;11.70;91.00;;;;;;4845517;29;20216;-92
2023/12/14 11:27:30;;;;;;;9.23;3.90;;;11.70;91.10;;;;;;4836678;29;20222;-92
2023/12/14 11:29:59;;;;;;;7.07;3.33;;;11.70;91.20;;;;;;4828920;29;20214;-84
2023/12/14 11:32:27;;;;;;;3.73;3.17;;;11.60;91.20;;;;;;4827707;29;20213;-84
2023/12/14 11:34:57;;;;;;;4.67;2.90;;;11.60;91.30;;;;;;4836048;29;20297;-82
2023/12/14 11:37:27;;;;;;;6.13;2.00;;;11.50;91.40;;;;;;4831893;29;20213;-82
2023/12/14 11:39:56;;;;;;;7.50;2.70;;;11.50;91.50;;;;;;4831043;29;20237;-85
2023/12/14 11:42:25;;;;;;;3.77;3.07;;;11.50;91.50;;;;;;4829578;29;20245;-84
2023/12/14 11:44:54;;;;;;;3.37;2.60;;;11.50;91.60;;;;;;4831818;29;20223;-84
2023/12/14 11:47:23;;;;;;;4.00;2.90;;;11.40;91.60;;;;;;4834007;29;20242;-85
2023/12/14 11:49:52;;;;;;;3.00;2.03;;;11.40;91.80;;;;;;4831749;29;20235;-82
2023/12/14 11:52:22;;;;;;;3.30;2.67;;;11.40;91.80;;;;;;4837910;29;20215;-82
2023/12/14 11:57:51;;;;;;;14.83;4.67;;;11.40;92.00;;;;;;4830161;29;20547;-82
2023/12/14 12:00:24;;;;;;;4.03;2.63;;;11.40;92.10;;;;;;4834323;29;20312;-82
2023/12/14 12:02:53;;;;;;;3.47;3.17;;;11.30;92.30;;;;;;4832479;29;20194;-81
2023/12/14 12:05:36;;;;;;;3.97;2.83;;;11.20;92.30;;;;;;4838572;29;20217;-84
2023/12/14 12:08:06;;;;;;;5.23;3.10;;;11.20;92.60;;;;;;4829575;29;20738;-83
2023/12/14 12:10:36;;;;;;;3.93;2.47;;;11.20;92.60;;;;;;4831260;29;20211;-84
2023/12/14 12:15:49;;;;;;;7.57;3.77;;;11.20;92.80;;;;;;4833047;29;20672;-84
2023/12/14 12:18:19;;;;;;;6.97;2.97;;;11.20;92.80;;;;;;4831506;29;20255;-82
2023/12/14 12:20:47;;;;;;;4.27;3.00;;;11.10;92.90;;;;;;4838114;29;20230;-84
2023/12/14 12:23:16;;;;;;;5.93;4.33;;;11.20;92.90;;;;;;4835457;29;20233;-81
2023/12/14 12:25:46;;;;;;;2.03;1.80;;;11.20;93.10;;;;;;4835102;29;20611;-89
2023/12/14 12:28:15;;;;;;;3.73;2.23;;;11.20;93.10;;;;;;4836815;29;20233;-88
2023/12/14 12:30:44;;;;;;;5.47;3.37;;;11.20;93.30;;;;;;4830626;29;20860;-85
2023/12/14 12:33:13;;;;;;;3.23;3.00;;;11.20;93.40;;;;;;4833197;29;20202;-85
2023/12/14 12:35:41;;;;;;;5.17;4.57;;;11.20;93.50;;;;;;4836441;29;20211;-86
2023/12/14 12:38:13;;;;;;;4.00;3.53;;;11.20;93.60;;;;;;4833929;29;20210;-87
2023/12/14 12:40:41;;;;;;;4.23;3.90;;;11.20;93.60;;;;;;4846143;29;20233;-88
2023/12/14 12:43:13;;;;;;;3.70;3.27;;;11.20;93.70;;;;;;4839390;29;20237;-89
2023/12/14 12:45:42;;;;;;;35.53;2.97;;;11.20;93.80;;;;;;4836129;29;20317;-88
2023/12/14 12:48:11;;;;;;;3.90;3.43;;;11.20;93.90;;;;;;4838660;29;20207;-89
2023/12/14 12:50:40;;;;;;;2.07;1.97;;;11.20;93.90;;;;;;4843275;29;20274;-89
2023/12/14 12:53:09;;;;;;;6.47;4.10;;;11.30;93.80;;;;;;4840530;29;20195;-90
2023/12/14 12:55:37;;;;;;;4.63;3.00;;;11.40;93.70;;;;;;4838008;29;20217;-91
2023/12/14 12:58:10;;;;;;;5.20;3.17;;;11.40;93.60;;;;;;4834621;29;20210;-91
2023/12/14 13:00:41;;;;;;;5.43;3.43;;;11.50;93.60;;;;;;4839040;29;20222;-92
2023/12/14 13:03:10;;;;;;;6.83;3.60;;;11.50;93.50;;;;;;4844612;29;20662;-89
2023/12/14 13:05:39;;;;;;;4.03;3.00;;;11.50;93.40;;;;;;4839994;29;20213;-90
2023/12/14 13:08:08;;;;;;;3.57;2.90;;;11.40;93.30;;;;;;4839157;29;20207;-87
2023/12/14 13:10:38;;;;;;;5.37;3.90;;;11.40;93.30;;;;;;4842833;29;20199;-88
2023/12/14 13:13:08;;;;;;;1.73;1.63;;;11.40;93.50;;;;;;4835257;29;20297;-90
2023/12/14 13:15:39;;;;;;;3.63;3.27;;;11.40;93.90;;;;;;4836634;29;20250;-86
2023/12/14 13:18:09;;;;;;;3.60;2.53;;;11.40;93.50;;;;;;4837821;29;20206;-87
2023/12/14 13:20:38;;;;;;;3.77;2.80;;;11.40;93.50;;;;;;4841763;29;20265;-87
2023/12/14 13:23:07;;;;;;;4.43;3.50;;;11.50;93.50;;;;;;4837258;29;20634;-92
2023/12/14 13:25:36;;;;;;;4.90;3.33;;;11.40;93.40;;;;;;4836746;29;20206;-87
2023/12/14 13:28:05;;;;;;;3.83;2.40;;;11.40;93.50;;;;;;4836202;29;20206;-86
2023/12/14 13:30:34;;;;;;;3.80;2.03;;;11.40;93.50;;;;;;4835438;29;20211;-89
2023/12/14 13:33:03;;;;;;;3.30;2.40;;;11.30;93.70;;;;;;4842494;29;20214;-91
2023/12/14 13:35:34;;;;;;;2.67;2.33;;;11.40;93.60;;;;;;4839047;29;20301;-87
2023/12/14 13:38:03;;;;;;;8.73;4.70;;;11.40;93.60;;;;;;4837577;29;20210;-89
2023/12/14 13:40:31;;;;;;;3.63;2.53;;;11.40;93.90;;;;;;4837030;29;20685;-83
2023/12/14 13:43:03;;;;;;;10.70;4.03;;;11.30;93.80;;;;;;4836583;29;20198;-89